Aviation Digital Data Service (ADDS)

Output produced by METARs form (2212 UTC 20 October 2018)
found at http://www.aviationweather.gov/metar/data/
 
TAF TBPB 201700Z 2018/2118 09016KT 9999 SCT016 SCT040 
     PROB30 
     TEMPO 2100/2106 5000 SHRA BKN014 FEW015CB